createdAt,value
2019-05-25T00:00:10.301Z,2.93
2019-05-25T00:02:40.630Z,3.07
2019-05-25T00:05:10.101Z,3.20
2019-05-25T00:07:39.471Z,3.20
2019-05-25T00:10:08.958Z,3.40
2019-05-25T00:12:38.305Z,3.27
2019-05-25T00:15:08.006Z,3.33
2019-05-25T00:17:37.368Z,3.97
2019-05-25T00:20:06.859Z,3.27
2019-05-25T00:22:36.223Z,3.40
2019-05-25T00:25:07.029Z,3.40
2019-05-25T00:27:36.391Z,3.13
2019-05-25T00:30:09.798Z,3.23
2019-05-25T00:32:39.152Z,3.80
2019-05-25T00:35:08.903Z,3.50
2019-05-25T00:37:38.244Z,3.70
2019-05-25T00:40:08.739Z,3.43
2019-05-25T00:42:38.113Z,3.47
2019-05-25T00:45:07.570Z,3.87
2019-05-25T00:47:36.927Z,3.97
2019-05-25T00:50:08.656Z,4.10
2019-05-25T00:52:38.022Z,3.87
2019-05-25T00:55:08.504Z,3.70
2019-05-25T00:57:37.909Z,4.27
2019-05-25T01:00:08.111Z,4.20
2019-05-25T01:02:39.779Z,4.37
2019-05-25T01:05:09.386Z,4.20
2019-05-25T01:07:38.759Z,3.90
2019-05-25T01:10:08.627Z,4.10
2019-05-25T01:12:38.012Z,4.23
2019-05-25T01:15:08.221Z,4.40
2019-05-25T01:17:37.600Z,4.30
2019-05-25T01:20:09.305Z,4.37
2019-05-25T01:22:39.071Z,4.60
2019-05-25T01:25:08.945Z,4.87
2019-05-25T01:27:38.315Z,4.93
2019-05-25T01:30:08.809Z,4.53
2019-05-25T01:32:38.219Z,4.40
2019-05-25T01:35:08.107Z,4.73
2019-05-25T01:37:37.512Z,4.83
2019-05-25T01:40:07.498Z,4.53
2019-05-25T01:42:36.860Z,5.00
2019-05-25T01:45:07.948Z,4.40
2019-05-25T01:47:37.332Z,5.00
2019-05-25T01:50:07.140Z,4.80
2019-05-25T01:52:36.593Z,4.57
2019-05-25T01:55:07.425Z,4.80
2019-05-25T01:57:36.779Z,5.00
2019-05-25T02:00:08.762Z,4.90
2019-05-25T02:02:38.108Z,5.03
2019-05-25T02:05:07.618Z,4.73
2019-05-25T02:07:36.984Z,4.70
2019-05-25T02:10:08.498Z,5.07
2019-05-25T02:12:37.834Z,4.80
2019-05-25T02:15:09.118Z,5.07
2019-05-25T02:17:38.554Z,5.53
2019-05-25T02:20:09.969Z,5.30
2019-05-25T02:22:39.337Z,5.23
2019-05-25T02:25:17.851Z,5.10
2019-05-25T02:27:41.377Z,5.43
2019-05-25T02:30:12.653Z,5.13
2019-05-25T02:32:42.003Z,5.30
2019-05-25T02:35:14.454Z,5.17
2019-05-25T02:37:43.838Z,5.57
2019-05-25T02:40:13.263Z,5.50
2019-05-25T02:42:42.655Z,5.30
2019-05-25T02:45:12.252Z,5.23
2019-05-25T02:47:41.597Z,5.07
2019-05-25T02:50:11.009Z,5.30
2019-05-25T02:52:40.362Z,5.60
2019-05-25T02:55:11.983Z,5.53
2019-05-25T02:57:41.374Z,5.33
2019-05-25T03:00:11.428Z,5.70
2019-05-25T03:02:41.221Z,6.00
2019-05-25T03:05:14.006Z,6.33
2019-05-25T03:07:45.193Z,5.73
2019-05-25T03:10:15.403Z,6.53
2019-05-25T03:12:44.986Z,5.87
2019-05-25T03:15:14.556Z,7.27
2019-05-25T03:17:43.996Z,6.40
2019-05-25T03:20:13.695Z,6.83
2019-05-25T03:22:43.039Z,7.00
2019-05-25T03:25:12.823Z,6.37
2019-05-25T03:27:42.227Z,6.70
2019-05-25T03:30:11.654Z,6.80
2019-05-25T03:32:41.009Z,6.60
2019-05-25T03:35:10.728Z,6.50
2019-05-25T03:37:40.096Z,7.00
2019-05-25T03:40:09.644Z,6.97
2019-05-25T03:42:38.967Z,6.80
2019-05-25T03:45:09.173Z,7.07
2019-05-25T03:47:38.549Z,7.33
2019-05-25T03:50:09.052Z,7.50
2019-05-25T03:52:38.428Z,7.40
2019-05-25T03:55:08.036Z,7.33
2019-05-25T03:57:37.419Z,8.37
2019-05-25T04:00:10.466Z,8.53
2019-05-25T04:02:39.943Z,6.87
2019-05-25T04:05:09.502Z,8.27
2019-05-25T04:07:38.844Z,7.80
2019-05-25T04:10:09.820Z,8.13
2019-05-25T04:12:39.172Z,8.77
2019-05-25T04:15:08.977Z,8.30
2019-05-25T04:17:38.460Z,8.57
2019-05-25T04:20:07.867Z,8.43
2019-05-25T04:22:37.214Z,8.73
2019-05-25T04:25:08.272Z,8.23
2019-05-25T04:27:37.634Z,8.13
2019-05-25T04:30:08.670Z,8.77
2019-05-25T04:32:38.019Z,8.80
2019-05-25T04:35:07.814Z,9.03
2019-05-25T04:37:37.160Z,8.70
2019-05-25T04:40:08.518Z,8.97
2019-05-25T04:42:38.089Z,9.50
2019-05-25T04:45:08.713Z,9.03
2019-05-25T04:47:38.049Z,9.07
2019-05-25T04:50:08.666Z,8.80
2019-05-25T04:52:41.173Z,8.70
2019-05-25T04:55:09.454Z,9.50
2019-05-25T04:57:38.822Z,9.50
2019-05-25T05:00:09.051Z,9.43
2019-05-25T05:02:38.398Z,9.30
2019-05-25T05:05:07.886Z,9.53
2019-05-25T05:07:37.260Z,9.03
2019-05-25T05:10:07.812Z,9.57
2019-05-25T05:12:38.144Z,8.77
2019-05-25T05:15:08.925Z,9.80
2019-05-25T05:17:38.334Z,8.97
2019-05-25T05:20:09.054Z,7.77
2019-05-25T05:22:38.440Z,8.40
2019-05-25T05:25:09.052Z,8.43
2019-05-25T05:27:39.201Z,8.10
2019-05-25T05:30:09.592Z,8.40
2019-05-25T05:32:38.945Z,7.70
2019-05-25T05:35:09.345Z,7.70
2019-05-25T05:37:40.937Z,7.13
2019-05-25T05:40:11.047Z,7.30
2019-05-25T05:42:43.212Z,6.30
2019-05-25T05:45:12.999Z,6.28
2019-05-25T05:47:44.394Z,5.83
2019-05-25T05:50:14.328Z,6.00
2019-05-25T05:52:43.684Z,5.35
2019-05-25T05:55:17.163Z,5.50
2019-05-25T05:57:44.640Z,4.90
2019-05-25T06:00:14.249Z,5.58
2019-05-25T06:02:43.604Z,5.40
2019-05-25T06:05:13.049Z,6.65
2019-05-25T06:07:42.524Z,5.70
2019-05-25T06:10:12.021Z,5.72
2019-05-25T06:12:41.388Z,5.30
2019-05-25T06:15:10.996Z,5.08
2019-05-25T06:17:41.362Z,5.40
2019-05-25T06:20:11.042Z,6.22
2019-05-25T06:22:40.417Z,6.22
2019-05-25T06:25:11.672Z,5.60
2019-05-25T06:27:40.990Z,5.95
2019-05-25T06:30:11.100Z,5.83
2019-05-25T06:32:40.458Z,5.40
2019-05-25T06:35:10.183Z,5.95
2019-05-25T06:37:39.519Z,6.65
2019-05-25T06:40:10.499Z,6.00
2019-05-25T06:42:39.940Z,6.00
2019-05-25T06:45:09.977Z,6.70
2019-05-25T06:47:39.340Z,5.97
2019-05-25T06:50:09.151Z,6.53
2019-05-25T06:52:38.513Z,6.40
2019-05-25T06:55:08.600Z,5.50
2019-05-25T06:57:43.097Z,5.87
2019-05-25T07:00:10.023Z,5.78
2019-05-25T07:02:39.367Z,6.20
2019-05-25T07:05:10.359Z,4.90
2019-05-25T07:07:39.721Z,5.08
2019-05-25T07:10:10.414Z,5.87
2019-05-25T07:12:39.806Z,5.95
2019-05-25T07:15:10.018Z,5.47
2019-05-25T07:17:39.370Z,5.42
2019-05-25T07:20:10.791Z,4.85
2019-05-25T07:22:40.169Z,5.03
2019-05-25T07:25:10.464Z,4.72
2019-05-25T07:27:39.838Z,4.45
2019-05-25T07:30:09.871Z,4.70
2019-05-25T07:32:39.206Z,4.42
2019-05-25T07:35:09.096Z,4.28
2019-05-25T07:37:38.456Z,4.58
2019-05-25T07:40:08.590Z,4.22
2019-05-25T07:42:37.989Z,4.35
2019-05-25T07:45:09.082Z,4.62
2019-05-25T07:47:38.435Z,4.62
2019-05-25T07:50:09.266Z,4.92
2019-05-25T07:52:38.600Z,4.80
2019-05-25T07:55:08.438Z,4.78
2019-05-25T07:57:37.860Z,5.08
2019-05-25T08:00:09.173Z,4.30
2019-05-25T08:02:38.659Z,4.62
2019-05-25T08:05:09.057Z,4.45
2019-05-25T08:07:38.447Z,4.58
2019-05-25T08:10:08.532Z,4.83
2019-05-25T08:12:38.014Z,4.33
2019-05-25T08:15:07.710Z,4.50
2019-05-25T08:17:37.058Z,4.85
2019-05-25T08:20:07.266Z,5.22
2019-05-25T08:22:37.590Z,4.72
2019-05-25T08:25:08.680Z,4.40
2019-05-25T08:27:38.052Z,4.05
2019-05-25T08:30:09.143Z,4.95
2019-05-25T08:32:38.516Z,4.00
2019-05-25T08:35:08.725Z,4.00
2019-05-25T08:37:38.091Z,3.85
2019-05-25T08:40:08.792Z,4.28
2019-05-25T08:42:38.173Z,3.37
2019-05-25T08:45:08.874Z,3.55
2019-05-25T08:47:38.229Z,3.90
2019-05-25T08:50:08.330Z,3.58
2019-05-25T08:52:38.340Z,4.90
2019-05-25T08:55:08.067Z,3.80
2019-05-25T08:57:37.433Z,3.83
2019-05-25T09:00:08.916Z,3.30
2019-05-25T09:02:38.282Z,3.40
2019-05-25T09:05:07.896Z,3.47
2019-05-25T09:07:37.269Z,3.35
2019-05-25T09:10:08.375Z,3.70
2019-05-25T09:12:37.743Z,3.12
2019-05-25T09:15:07.470Z,3.35
2019-05-25T09:17:36.857Z,2.92
2019-05-25T09:20:09.722Z,3.37
2019-05-25T09:22:40.045Z,3.10
2019-05-25T09:25:10.360Z,3.17
2019-05-25T09:27:39.753Z,2.98
2019-05-25T09:30:10.362Z,3.10
2019-05-25T09:32:39.729Z,3.30
2019-05-25T09:35:09.637Z,3.42
2019-05-25T09:37:39.009Z,3.12
2019-05-25T09:40:09.331Z,3.00
2019-05-25T09:42:39.205Z,2.90
2019-05-25T09:45:09.526Z,2.60
2019-05-25T09:47:38.916Z,3.02
2019-05-25T09:50:08.809Z,3.08
2019-05-25T09:52:38.171Z,2.87
2019-05-25T09:55:08.407Z,3.45
2019-05-25T09:57:41.360Z,3.12
2019-05-25T10:00:11.041Z,3.77
2019-05-25T10:02:40.700Z,3.52
2019-05-25T10:05:10.513Z,3.30
2019-05-25T10:07:40.948Z,3.85
2019-05-25T10:10:11.053Z,3.08
2019-05-25T10:12:40.416Z,3.33
2019-05-25T10:15:10.326Z,3.08
2019-05-25T10:17:39.703Z,3.47
2019-05-25T10:20:10.734Z,3.42
2019-05-25T10:22:40.121Z,3.17
2019-05-25T10:25:10.307Z,3.77
2019-05-25T10:27:39.675Z,3.42
2019-05-25T10:30:09.184Z,4.15
2019-05-25T10:32:38.560Z,3.42
2019-05-25T10:35:08.588Z,3.37
2019-05-25T10:37:38.736Z,3.50
2019-05-25T10:40:08.646Z,3.50
2019-05-25T10:42:38.047Z,4.50
2019-05-25T10:45:08.955Z,4.53
2019-05-25T10:47:39.529Z,4.58
2019-05-25T10:50:11.870Z,3.75
2019-05-25T10:52:41.313Z,3.72
2019-05-25T10:55:11.290Z,4.37
2019-05-25T10:57:41.419Z,3.80
2019-05-25T11:00:12.430Z,3.98
2019-05-25T11:02:41.859Z,3.70
2019-05-25T11:05:12.050Z,3.72
2019-05-25T11:07:41.411Z,3.50
2019-05-25T11:10:12.420Z,4.60
2019-05-25T11:12:41.767Z,4.50
2019-05-25T11:15:11.462Z,4.92
2019-05-25T11:17:40.817Z,4.85
2019-05-25T11:20:11.009Z,4.78
2019-05-25T11:22:40.550Z,4.40
2019-05-25T11:25:10.741Z,4.03
2019-05-25T11:27:40.123Z,4.45
2019-05-25T11:30:11.496Z,5.20
2019-05-25T11:32:40.857Z,5.40
2019-05-25T11:35:10.652Z,5.00
2019-05-25T11:37:40.006Z,5.30
2019-05-25T11:40:11.537Z,4.45
2019-05-25T11:42:40.852Z,4.65
2019-05-25T11:45:12.135Z,5.67
2019-05-25T11:47:41.522Z,5.25
2019-05-25T11:50:12.629Z,5.17
2019-05-25T11:52:42.055Z,4.35
2019-05-25T11:55:12.083Z,4.45
2019-05-25T11:57:41.440Z,4.50
2019-05-25T12:00:24.176Z,4.80
2019-05-25T12:02:44.914Z,4.72
2019-05-25T12:05:14.636Z,5.58
2019-05-25T12:07:45.062Z,5.35
2019-05-25T12:10:15.005Z,4.85
2019-05-25T12:12:44.380Z,5.87
2019-05-25T12:15:14.451Z,5.28
2019-05-25T12:17:43.808Z,5.62
2019-05-25T12:20:14.515Z,5.00
2019-05-25T12:22:43.853Z,4.70
2019-05-25T12:25:13.669Z,4.95
2019-05-25T12:27:43.051Z,4.53
2019-05-25T12:30:13.081Z,4.80
2019-05-25T12:32:42.437Z,4.62
2019-05-25T12:35:12.049Z,4.50
2019-05-25T12:37:41.503Z,5.50
2019-05-25T12:40:11.399Z,5.03
2019-05-25T12:42:40.770Z,4.83
2019-05-25T12:45:10.654Z,4.47
2019-05-25T12:47:40.028Z,5.55
2019-05-25T12:50:10.636Z,5.97
2019-05-25T12:52:40.031Z,4.90
2019-05-25T12:55:09.581Z,5.30
2019-05-25T12:57:38.950Z,4.03
2019-05-25T13:00:16.054Z,4.62
2019-05-25T13:02:40.917Z,3.67
2019-05-25T13:05:11.242Z,4.17
2019-05-25T13:07:40.604Z,5.08
2019-05-25T13:10:10.817Z,4.92
2019-05-25T13:12:40.165Z,5.78
2019-05-25T13:15:10.350Z,5.53
2019-05-25T13:17:39.711Z,4.12
2019-05-25T13:20:09.427Z,4.92
2019-05-25T13:22:38.780Z,4.17
2019-05-25T13:25:08.597Z,3.92
2019-05-25T13:27:37.939Z,4.47
2019-05-25T13:30:08.037Z,4.20
2019-05-25T13:32:37.404Z,4.65
2019-05-25T13:35:08.685Z,4.67
2019-05-25T13:37:38.715Z,4.28
2019-05-25T13:40:08.903Z,3.77
2019-05-25T13:42:38.291Z,4.37
2019-05-25T13:45:09.144Z,4.50
2019-05-25T13:47:38.527Z,4.20
2019-05-25T13:50:09.030Z,4.50
2019-05-25T13:52:39.374Z,4.87
2019-05-25T13:55:08.987Z,4.45
2019-05-25T13:57:38.666Z,5.33
2019-05-25T14:00:09.651Z,5.30
2019-05-25T14:02:39.012Z,4.60
2019-05-25T14:05:08.629Z,4.92
2019-05-25T14:07:38.998Z,4.90
2019-05-25T14:10:09.112Z,5.22
2019-05-25T14:12:38.472Z,5.40
2019-05-25T14:15:08.760Z,4.42
2019-05-25T14:17:38.423Z,4.85
2019-05-25T14:20:08.467Z,4.45
2019-05-25T14:22:37.897Z,4.45
2019-05-25T14:25:08.485Z,4.70
2019-05-25T14:27:37.936Z,4.53
2019-05-25T14:30:07.833Z,4.70
2019-05-25T14:32:37.215Z,5.03
2019-05-25T14:35:07.227Z,5.78
2019-05-25T14:37:36.597Z,5.65
2019-05-25T14:40:11.389Z,5.10
2019-05-25T14:42:40.241Z,5.25
2019-05-25T14:45:10.848Z,5.00
2019-05-25T14:47:40.288Z,5.17
2019-05-25T14:50:10.419Z,5.08
2019-05-25T14:52:43.039Z,4.80
2019-05-25T14:55:11.199Z,4.70
2019-05-25T14:57:40.689Z,5.78
2019-05-25T15:00:11.967Z,4.62
2019-05-25T15:02:41.427Z,4.15
2019-05-25T15:05:10.950Z,4.28
2019-05-25T15:07:40.320Z,4.03
2019-05-25T15:10:10.446Z,3.20
2019-05-25T15:12:39.801Z,3.27
2019-05-25T15:15:09.490Z,3.52
2019-05-25T15:17:38.871Z,3.42
2019-05-25T15:20:09.458Z,3.02
2019-05-25T15:22:38.815Z,3.33
2019-05-25T15:25:09.223Z,3.37
2019-05-25T15:27:38.586Z,3.90
2019-05-25T15:30:08.367Z,3.80
2019-05-25T15:32:37.902Z,3.25
2019-05-25T15:35:07.933Z,3.25
2019-05-25T15:37:37.303Z,2.83
2019-05-25T15:40:12.140Z,2.98
2019-05-25T15:42:41.527Z,3.17
2019-05-25T15:45:11.507Z,3.27
2019-05-25T15:47:40.866Z,3.58
2019-05-25T15:50:11.786Z,3.83
2019-05-25T15:52:41.237Z,3.80
2019-05-25T15:55:11.325Z,3.72
2019-05-25T15:57:40.813Z,3.40
2019-05-25T16:00:13.199Z,3.33
2019-05-25T16:02:42.684Z,3.50
2019-05-25T16:05:12.882Z,3.30
2019-05-25T16:07:45.604Z,3.50
2019-05-25T16:10:15.542Z,3.45
2019-05-25T16:12:44.917Z,2.70
2019-05-25T16:15:17.305Z,3.25
2019-05-25T16:17:46.672Z,3.20
2019-05-25T16:20:19.087Z,3.77
2019-05-25T16:22:48.555Z,3.10
2019-05-25T16:25:17.915Z,3.12
2019-05-25T16:27:47.263Z,3.33
2019-05-25T16:30:17.185Z,3.50
2019-05-25T16:35:18.799Z,3.08
2019-05-25T16:37:07.700Z,3.02
2019-05-25T16:37:48.530Z,2.77
2019-05-25T16:40:18.568Z,3.30
2019-05-25T16:42:47.949Z,3.50
2019-05-25T16:45:17.849Z,3.20
2019-05-25T16:47:47.369Z,3.77
2019-05-25T16:50:17.184Z,3.72
2019-05-25T16:52:46.703Z,3.85
2019-05-25T16:55:16.363Z,3.90
2019-05-25T16:57:45.907Z,3.62
2019-05-25T17:00:18.298Z,6.60
2019-05-25T17:02:47.689Z,4.90
2019-05-25T17:05:17.203Z,4.20
2019-05-25T17:07:46.549Z,3.77
2019-05-25T17:10:16.244Z,4.50
2019-05-25T17:12:45.639Z,4.15
2019-05-25T17:15:16.550Z,4.12
2019-05-25T17:17:45.893Z,4.20
2019-05-25T17:20:15.986Z,4.45
2019-05-25T17:22:45.365Z,4.85
2019-05-25T17:25:14.974Z,4.22
2019-05-25T17:27:44.326Z,4.33
2019-05-25T17:30:15.857Z,4.90
2019-05-25T17:32:45.228Z,4.17
2019-05-25T17:35:15.184Z,4.40
2019-05-25T17:37:44.544Z,3.70
2019-05-25T17:40:14.039Z,3.80
2019-05-25T17:42:43.395Z,3.65
2019-05-25T17:45:13.278Z,4.45
2019-05-25T17:47:42.632Z,3.72
2019-05-25T17:50:12.769Z,3.60
2019-05-25T17:52:42.130Z,3.62
2019-05-25T17:55:11.737Z,3.42
2019-05-25T17:57:41.097Z,3.75
2019-05-25T18:00:11.188Z,4.40
2019-05-25T18:02:40.585Z,3.50
2019-05-25T18:05:10.587Z,3.50
2019-05-25T18:07:39.942Z,3.50
2019-05-25T18:10:09.668Z,3.22
2019-05-25T18:12:39.095Z,2.62
2019-05-25T18:15:10.212Z,2.90
2019-05-25T18:17:39.595Z,2.17
2019-05-25T18:20:10.457Z,2.10
2019-05-25T18:22:39.905Z,3.60
2019-05-25T18:25:09.594Z,3.10
2019-05-25T18:27:38.947Z,3.30
2019-05-25T18:30:10.433Z,4.95
2019-05-25T18:32:40.780Z,3.47
2019-05-25T18:35:10.592Z,3.62
2019-05-25T18:37:39.965Z,4.85
2019-05-25T18:40:10.378Z,5.00
2019-05-25T18:42:39.737Z,8.03
2019-05-25T18:45:09.537Z,5.75
2019-05-25T18:47:38.897Z,5.80
2019-05-25T18:50:10.387Z,3.67
2019-05-25T18:52:39.770Z,2.77
2019-05-25T18:55:09.856Z,2.40
2019-05-25T18:57:40.285Z,2.70
2019-05-25T19:00:10.573Z,2.80
2019-05-25T19:02:39.947Z,2.60
2019-05-25T19:05:10.635Z,3.42
2019-05-25T19:07:39.998Z,3.12
2019-05-25T19:10:10.682Z,2.70
2019-05-25T19:12:40.075Z,2.98
2019-05-25T19:15:10.349Z,3.05
2019-05-25T19:17:39.797Z,2.83
2019-05-25T19:20:10.019Z,2.90
2019-05-25T19:22:39.371Z,3.20
2019-05-25T19:25:09.175Z,2.90
2019-05-25T19:27:38.556Z,2.67
2019-05-25T19:30:09.170Z,2.80
2019-05-25T19:32:38.553Z,2.85
2019-05-25T19:35:09.123Z,3.03
2019-05-25T19:37:42.015Z,2.93
2019-05-25T19:40:10.653Z,3.20
2019-05-25T19:42:40.150Z,3.57
2019-05-25T19:45:10.104Z,3.17
2019-05-25T19:47:39.544Z,3.37
2019-05-25T19:50:09.681Z,3.07
2019-05-25T19:52:39.024Z,2.70
2019-05-25T19:55:09.121Z,3.03
2019-05-25T19:57:38.485Z,3.37
2019-05-25T20:00:09.764Z,3.10
2019-05-25T20:02:39.155Z,3.67
2019-05-25T20:05:16.484Z,4.47
2019-05-25T20:07:40.034Z,4.20
2019-05-25T20:10:10.657Z,3.47
2019-05-25T20:12:39.998Z,3.93
2019-05-25T20:15:09.919Z,3.87
2019-05-25T20:17:39.271Z,3.87
2019-05-25T20:20:09.149Z,4.20
2019-05-25T20:22:38.627Z,3.90
2019-05-25T20:25:09.762Z,4.90
2019-05-25T20:27:39.133Z,4.77
2019-05-25T20:30:09.542Z,4.70
2019-05-25T20:32:38.910Z,4.63
2019-05-25T20:35:09.244Z,3.70
2019-05-25T20:37:38.638Z,3.97
2019-05-25T20:40:08.657Z,3.87
2019-05-25T20:42:38.544Z,4.80
2019-05-25T20:45:09.749Z,4.33
2019-05-25T20:47:39.089Z,5.37
2019-05-25T20:50:09.201Z,4.90
2019-05-25T20:52:38.606Z,5.70
2019-05-25T20:55:10.068Z,5.33
2019-05-25T20:57:39.415Z,5.67
2019-05-25T21:00:09.521Z,5.37
2019-05-25T21:02:38.893Z,5.30
2019-05-25T21:05:08.400Z,5.63
2019-05-25T21:07:37.784Z,5.57
2019-05-25T21:10:08.002Z,5.50
2019-05-25T21:12:37.348Z,5.47
2019-05-25T21:15:08.845Z,8.63
2019-05-25T21:17:38.232Z,5.57
2019-05-25T21:20:08.489Z,5.57
2019-05-25T21:22:38.934Z,5.73
2019-05-25T21:25:08.711Z,5.20
2019-05-25T21:27:38.116Z,5.77
2019-05-25T21:30:08.876Z,7.70
2019-05-25T21:32:38.328Z,8.90
2019-05-25T21:35:08.261Z,8.23
2019-05-25T21:37:37.635Z,7.60
2019-05-25T21:40:08.668Z,6.20
2019-05-25T21:42:38.059Z,7.60
2019-05-25T21:45:07.846Z,5.77
2019-05-25T21:47:37.213Z,5.37
2019-05-25T21:50:07.506Z,6.37
2019-05-25T21:52:37.146Z,6.33
2019-05-25T21:55:07.696Z,6.63
2019-05-25T21:57:37.060Z,7.30
2019-05-25T22:00:10.002Z,7.37
2019-05-25T22:02:39.545Z,7.90
2019-05-25T22:05:09.437Z,6.90
2019-05-25T22:07:38.821Z,6.00
2019-05-25T22:10:08.707Z,5.83
2019-05-25T22:12:40.185Z,6.37
2019-05-25T22:15:12.389Z,6.10
2019-05-25T22:17:41.759Z,7.80
2019-05-25T22:20:12.661Z,8.67
2019-05-25T22:22:42.064Z,7.43
2019-05-25T22:25:11.731Z,7.17
2019-05-25T22:27:41.092Z,7.73
2019-05-25T22:30:10.772Z,7.27
2019-05-25T22:32:40.173Z,6.97
2019-05-25T22:35:10.072Z,6.47
2019-05-25T22:37:39.435Z,7.60
2019-05-25T22:40:10.056Z,7.97
2019-05-25T22:42:39.439Z,7.83
2019-05-25T22:45:10.592Z,8.07
2019-05-25T22:47:39.971Z,8.57
2019-05-25T22:50:09.877Z,7.73
2019-05-25T22:52:39.233Z,7.80
2019-05-25T22:55:08.937Z,8.00
2019-05-25T22:57:38.320Z,7.70
2019-05-25T23:00:09.631Z,7.87
2019-05-25T23:02:39.368Z,7.60
2019-05-25T23:05:09.156Z,8.10
2019-05-25T23:07:38.537Z,8.50
2019-05-25T23:10:09.240Z,8.20
2019-05-25T23:12:38.688Z,8.83
2019-05-25T23:15:09.677Z,8.47
2019-05-25T23:17:39.313Z,8.27
2019-05-25T23:20:08.927Z,8.73
2019-05-25T23:22:38.265Z,8.77
2019-05-25T23:25:08.480Z,8.50
2019-05-25T23:27:37.828Z,8.47
2019-05-25T23:30:08.137Z,8.97
2019-05-25T23:32:37.509Z,9.10
2019-05-25T23:35:07.211Z,9.10
2019-05-25T23:37:36.572Z,8.63
2019-05-25T23:40:08.058Z,9.67
2019-05-25T23:42:37.426Z,8.40
2019-05-25T23:45:08.491Z,9.47
2019-05-25T23:47:37.850Z,9.63
2019-05-25T23:50:08.086Z,10.53
2019-05-25T23:52:37.447Z,11.00
2019-05-25T23:55:07.152Z,11.47
2019-05-25T23:57:38.351Z,11.50
